Time;durP1;ratioP1;P1;durP2;ratioP2;P2;SDS_P1;SDS_P2;PMS_P1;PMS_P2;Temp;Humidity;BMP_temperature;BMP_pressure;BME280_temperature;BME280_humidity;BME280_pressure;Samples;Min_cycle;Max_cycle;Signal;HPM_P1;HPM_P2
2021/12/19 00:02:28;;;;;;;16.90;8.27;;;;;;;;;;5074520;28;20544;-55
2021/12/19 00:10:07;;;;;;;17.63;9.68;;;7.10;99.90;;;;;;5069331;28;20091;-54
2021/12/19 00:12:33;;;;;;;19.27;9.98;;;;;;;;;;5081186;28;20059;-55
2021/12/19 00:14:59;;;;;;;21.00;10.05;;;7.00;99.90;;;;;;5061528;28;20579;-50
2021/12/19 00:17:24;;;;;;;22.60;10.85;;;7.20;99.90;;;;;;5073279;28;20112;-51
2021/12/19 00:19:50;;;;;;;21.05;10.15;;;7.10;99.90;;;;;;5069780;28;20076;-51
2021/12/19 00:22:15;;;;;;;22.65;10.63;;;7.20;99.90;;;;;;5074737;28;20051;-52
2021/12/19 00:24:41;;;;;;;21.98;11.00;;;7.10;99.90;;;;;;5069365;28;20439;-53
2021/12/19 00:27:07;;;;;;;21.50;9.50;;;;;;;;;;5072247;28;20040;-50
2021/12/19 00:29:33;;;;;;;19.05;7.82;;;7.10;99.90;;;;;;5067530;28;20044;-54
2021/12/19 00:31:59;;;;;;;9.48;5.45;;;7.20;99.90;;;;;;5092297;28;20404;-53
2021/12/19 00:34:24;;;;;;;7.80;4.25;;;7.20;99.90;;;;;;5073076;28;20037;-53
2021/12/19 00:36:50;;;;;;;9.98;4.60;;;7.10;99.90;;;;;;5061684;28;20076;-55
2021/12/19 00:39:16;;;;;;;11.48;3.80;;;7.00;99.90;;;;;;5082689;28;20036;-54
2021/12/19 00:41:42;;;;;;;13.02;4.70;;;;;;;;;;5070051;28;20029;-54
2021/12/19 00:44:14;;;;;;;10.75;3.67;;;;;;;;;;5073321;28;20047;-55
2021/12/19 00:46:49;;;;;;;8.05;3.55;;;7.00;99.90;;;;;;5073148;28;20040;-52
2021/12/19 00:49:16;;;;;;;8.68;3.58;;;6.90;99.90;;;;;;5070657;28;20088;-52
2021/12/19 00:51:42;;;;;;;9.48;3.53;;;;;;;;;;5079052;28;20131;-55
2021/12/19 00:54:09;;;;;;;5.88;2.97;;;;;;;;;;5063551;28;20155;-55
2021/12/19 00:56:39;;;;;;;5.72;2.70;;;6.90;99.90;;;;;;5063445;28;20037;-55
2021/12/19 00:59:06;;;;;;;10.13;3.38;;;;;;;;;;5067471;28;20068;-55
2021/12/19 01:01:34;;;;;;;7.95;2.83;;;7.00;99.90;;;;;;5080413;28;20043;-51
2021/12/19 01:04:01;;;;;;;7.70;2.72;;;;;;;;;;5069360;28;20374;-54
2021/12/19 01:06:28;;;;;;;4.95;2.13;;;;;;;;;;5061786;28;20037;-53
2021/12/19 01:08:55;;;;;;;7.78;2.08;;;6.80;99.90;;;;;;5067428;28;20036;-52
2021/12/19 01:11:21;;;;;;;5.57;2.40;;;7.00;99.90;;;;;;5077694;28;20032;-54
2021/12/19 01:13:47;;;;;;;4.70;1.60;;;;;;;;;;5076317;28;20055;-55
2021/12/19 01:16:15;;;;;;;3.35;1.50;;;6.80;99.90;;;;;;5075959;28;20127;-52
2021/12/19 01:18:41;;;;;;;3.45;1.27;;;;;;;;;;5075306;28;20051;-55
2021/12/19 01:21:07;;;;;;;4.15;1.35;;;;;;;;;;5084204;28;20040;-54
2021/12/19 01:23:33;;;;;;;6.57;1.65;;;;;;;;;;5079281;28;20040;-52
2021/12/19 01:25:59;;;;;;;5.65;1.40;;;;;;;;;;5084203;28;20093;-52
2021/12/19 01:28:25;;;;;;;5.93;1.52;;;;;;;;;;5070438;28;20036;-54
2021/12/19 01:30:51;;;;;;;3.20;1.13;;;6.80;99.90;;;;;;5073514;28;20047;-52
2021/12/19 01:33:17;;;;;;;8.10;1.60;;;;;;;;;;5068291;28;20409;-55
2021/12/19 01:35:43;;;;;;;4.68;1.50;;;;;;;;;;5073603;28;20397;-51
2021/12/19 01:38:09;;;;;;;2.83;1.20;;;6.90;99.90;;;;;;5075903;28;20032;-49
2021/12/19 01:40:35;;;;;;;4.22;1.48;;;6.80;99.90;;;;;;5079624;28;20036;-52
2021/12/19 01:43:01;;;;;;;5.53;1.48;;;6.90;99.90;;;;;;5067044;28;20119;-55
2021/12/19 01:45:39;;;;;;;3.92;1.40;;;7.00;99.90;;;;;;5085070;28;20040;-55
2021/12/19 01:48:09;;;;;;;2.95;1.20;;;6.90;99.90;;;;;;5072801;28;20089;-53
2021/12/19 01:50:36;;;;;;;3.67;1.40;;;7.00;99.90;;;;;;5069568;28;20037;-53
2021/12/19 01:53:04;;;;;;;3.95;1.60;;;6.90;99.90;;;;;;5063466;28;20475;-52
2021/12/19 01:55:31;;;;;;;5.45;1.38;;;6.80;99.90;;;;;;5064339;28;20048;-49
2021/12/19 01:57:57;;;;;;;5.22;1.35;;;6.80;99.90;;;;;;5064321;28;20412;-55
2021/12/19 02:00:32;;;;;;;4.30;1.50;;;6.80;99.90;;;;;;5074211;28;20040;-55
2021/12/19 02:03:01;;;;;;;3.60;1.25;;;6.80;99.90;;;;;;5067100;28;20037;-55
2021/12/19 02:05:28;;;;;;;6.40;1.30;;;6.70;99.90;;;;;;5073787;28;20064;-53
2021/12/19 02:07:55;;;;;;;6.60;1.60;;;6.90;99.90;;;;;;5075155;28;20124;-50
2021/12/19 02:10:23;;;;;;;4.78;1.90;;;6.70;99.90;;;;;;5078027;28;20455;-49
2021/12/19 02:12:51;;;;;;;4.97;1.25;;;6.80;99.90;;;;;;5068802;28;20063;-52
2021/12/19 02:15:21;;;;;;;4.38;1.15;;;6.90;99.90;;;;;;5079689;28;20743;-51
2021/12/19 02:17:48;;;;;;;2.22;1.00;;;6.80;99.90;;;;;;5072519;28;22339;-50
2021/12/19 02:20:16;;;;;;;4.18;0.70;;;6.80;99.90;;;;;;5071843;28;20045;-49
2021/12/19 02:22:44;;;;;;;1.95;0.68;;;6.70;99.90;;;;;;5065015;28;20044;-52
2021/12/19 02:25:14;;;;;;;2.08;0.70;;;6.70;99.90;;;;;;5065698;28;20037;-51
2021/12/19 02:27:40;;;;;;;5.40;0.60;;;;;;;;;;5078883;28;20051;-55
2021/12/19 02:30:09;;;;;;;2.80;0.90;;;6.90;99.90;;;;;;5076832;28;20413;-53
2021/12/19 02:32:39;;;;;;;3.05;0.80;;;6.70;99.90;;;;;;5072572;28;20068;-50
2021/12/19 02:35:09;;;;;;;4.35;0.80;;;6.80;99.90;;;;;;5070423;28;20036;-50
2021/12/19 02:48:13;;;;;;;3.85;0.93;;;6.80;99.90;;;;;;5079632;28;20132;-49
2021/12/19 02:50:47;;;;;;;3.03;1.10;;;6.80;99.90;;;;;;5072862;28;20052;-55
2021/12/19 02:53:14;;;;;;;5.03;1.38;;;;;;;;;;5068676;28;20040;-53
2021/12/19 02:55:40;;;;;;;5.20;1.50;;;6.60;99.90;;;;;;5073029;28;20088;-55
2021/12/19 02:58:08;;;;;;;6.03;1.48;;;6.60;99.90;;;;;;5081914;28;20102;-52
2021/12/19 03:00:33;;;;;;;3.80;1.20;;;6.70;99.90;;;;;;5080666;28;20044;-49
2021/12/19 03:03:00;;;;;;;4.13;1.20;;;;;;;;;;5071906;28;20107;-55
2021/12/19 03:05:26;;;;;;;3.08;1.00;;;;;;;;;;5078656;28;20051;-53
2021/12/19 03:07:54;;;;;;;2.28;0.77;;;6.60;99.90;;;;;;5083051;28;20040;-54
2021/12/19 03:13:28;;;;;;;5.20;1.20;;;6.50;99.90;;;;;;5073780;28;20122;-49
2021/12/19 03:18:42;;;;;;;4.65;1.20;;;6.50;99.90;;;;;;5078583;28;20043;-49
2021/12/19 03:21:12;;;;;;;9.98;1.50;;;6.60;99.90;;;;;;5079118;28;20048;-53
2021/12/19 03:23:38;;;;;;;6.20;1.00;;;6.50;99.90;;;;;;5059845;28;20106;-55
2021/12/19 03:26:04;;;;;;;3.53;0.93;;;;;;;;;;5072868;28;20136;-49
2021/12/19 03:28:32;;;;;;;4.00;1.10;;;6.50;99.90;;;;;;5049593;28;20497;-49
2021/12/19 03:30:59;;;;;;;4.03;1.00;;;;;;;;;;5069308;28;20056;-54
2021/12/19 03:33:25;;;;;;;6.50;1.50;;;;;;;;;;5071522;28;20592;-51
2021/12/19 03:35:52;;;;;;;4.70;1.52;;;6.60;99.90;;;;;;5066863;28;20455;-51
2021/12/19 03:38:18;;;;;;;4.03;1.20;;;6.40;99.90;;;;;;5071134;28;20170;-50
2021/12/19 03:40:52;;;;;;;6.45;1.55;;;;;;;;;;5072323;28;20140;-54
2021/12/19 03:43:23;;;;;;;6.40;1.77;;;6.50;99.90;;;;;;5065929;28;20043;-53
2021/12/19 03:45:49;;;;;;;9.60;2.20;;;6.40;99.90;;;;;;5061696;28;20056;-51
2021/12/19 03:48:16;;;;;;;5.72;2.33;;;6.50;99.90;;;;;;5080777;28;20454;-55
2021/12/19 03:50:46;;;;;;;6.88;2.85;;;6.60;99.90;;;;;;5080518;28;20044;-50
2021/12/19 03:53:13;;;;;;;6.45;2.15;;;6.40;99.90;;;;;;5074906;28;20119;-51
2021/12/19 03:55:40;;;;;;;6.20;1.70;;;6.50;99.90;;;;;;5074721;28;20529;-51
2021/12/19 03:58:08;;;;;;;8.75;1.80;;;6.30;99.90;;;;;;5076650;28;20066;-53
2021/12/19 04:00:37;;;;;;;4.13;1.60;;;6.50;99.90;;;;;;5065964;28;20044;-50
2021/12/19 04:03:07;;;;;;;8.95;1.73;;;6.40;99.90;;;;;;5067933;28;20033;-54
2021/12/19 04:05:33;;;;;;;9.23;2.95;;;6.50;99.90;;;;;;5077473;28;20063;-53
2021/12/19 04:07:59;;;;;;;6.85;1.80;;;6.60;99.90;;;;;;5078145;28;20497;-53
2021/12/19 04:10:27;;;;;;;6.50;2.30;;;;;;;;;;5072803;28;20045;-53
2021/12/19 04:12:53;;;;;;;9.85;2.30;;;;;;;;;;5078280;28;20037;-53
2021/12/19 04:15:19;;;;;;;7.50;2.38;;;;;;;;;;5076914;28;20090;-55
2021/12/19 04:17:45;;;;;;;8.27;2.30;;;;;;;;;;5061925;28;20120;-53
2021/12/19 04:20:11;;;;;;;7.60;2.40;;;6.60;99.90;;;;;;5061192;28;20040;-49
2021/12/19 04:22:38;;;;;;;6.55;2.30;;;;;;;;;;5072768;28;20047;-50
2021/12/19 04:25:06;;;;;;;7.43;2.50;;;6.50;99.90;;;;;;5075255;28;20537;-53
2021/12/19 04:27:33;;;;;;;9.70;2.65;;;6.50;99.90;;;;;;5071745;28;20040;-55
2021/12/19 04:29:59;;;;;;;7.68;2.25;;;6.50;99.90;;;;;;5074117;28;20048;-49
2021/12/19 04:32:31;;;;;;;6.75;2.33;;;;;;;;;;5061615;28;20133;-52
2021/12/19 04:34:57;;;;;;;6.50;1.98;;;6.50;99.90;;;;;;5077796;28;20036;-54
2021/12/19 04:39:58;;;;;;;12.80;2.80;;;;;;;;;;5062693;28;20056;-55
2021/12/19 04:56:31;;;;;;;16.40;4.00;;;;;;;;;;4953855;28;20035;-53
2021/12/19 05:15:25;;;;;;;18.63;5.00;;;;;;;;;;4943722;28;21673;-49
2021/12/19 05:17:54;;;;;;;16.98;5.63;;;;;;;;;;4958678;28;20057;-53
2021/12/19 05:20:24;;;;;;;14.25;5.05;;;;;;;;;;4962886;28;20051;-55
2021/12/19 05:22:52;;;;;;;22.23;5.68;;;6.60;99.90;;;;;;4956696;28;20126;-52
2021/12/19 05:25:18;;;;;;;23.92;7.30;;;;;;;;;;4950370;28;20062;-49
2021/12/19 05:27:56;;;;;;;21.83;6.25;;;6.70;99.90;;;;;;4979035;28;20093;-53
2021/12/19 05:30:22;;;;;;;17.50;6.50;;;;;;;;;;5003921;28;20048;-55
2021/12/19 05:32:49;;;;;;;23.27;6.88;;;6.80;99.90;;;;;;5067970;28;20541;-55
2021/12/19 05:35:24;;;;;;;22.77;8.48;;;6.70;99.90;;;;;;5077362;28;20043;-55
2021/12/19 05:46:03;;;;;;;23.85;7.88;;;6.70;99.90;;;;;;5063444;28;20043;-55
2021/12/19 05:48:30;;;;;;;26.40;9.85;;;6.80;99.90;;;;;;5077198;28;20094;-55
2021/12/19 05:50:56;;;;;;;29.83;9.57;;;;;;;;;;5078368;28;20098;-53
2021/12/19 05:53:23;;;;;;;24.05;8.85;;;6.80;99.90;;;;;;5065450;28;20178;-56
2021/12/19 05:55:49;;;;;;;26.50;9.18;;;6.80;99.90;;;;;;5082677;28;20577;-52
2021/12/19 05:58:15;;;;;;;17.30;8.25;;;6.80;99.90;;;;;;5074162;28;20051;-51
2021/12/19 06:00:43;;;;;;;19.20;7.38;;;6.90;99.90;;;;;;5082056;28;20150;-55
2021/12/19 06:03:10;;;;;;;18.63;6.90;;;;;;;;;;5077255;28;20036;-49
2021/12/19 06:05:36;;;;;;;19.58;6.55;;;;;;;;;;5080494;28;20052;-52
2021/12/19 06:08:04;;;;;;;17.65;5.15;;;6.80;99.90;;;;;;5075120;28;20539;-53
2021/12/19 06:10:30;;;;;;;20.45;5.38;;;;;;;;;;5075293;28;20484;-55
2021/12/19 06:12:57;;;;;;;16.65;5.75;;;6.80;99.90;;;;;;5076637;28;20040;-54
2021/12/19 06:15:24;;;;;;;13.52;4.65;;;;;;;;;;5072935;28;20050;-55
2021/12/19 06:17:53;;;;;;;23.38;5.57;;;6.70;99.90;;;;;;5082640;28;20552;-55
2021/12/19 06:20:20;;;;;;;21.45;5.18;;;;;;;;;;5076062;28;20040;-51
2021/12/19 06:22:46;;;;;;;17.90;5.28;;;;;;;;;;5083119;28;20032;-55
2021/12/19 06:25:14;;;;;;;19.60;6.55;;;6.80;99.90;;;;;;5071304;28;20047;-54
2021/12/19 06:27:40;;;;;;;13.80;4.57;;;6.80;99.90;;;;;;5083057;28;20036;-51
2021/12/19 06:30:07;;;;;;;20.52;5.28;;;6.70;99.90;;;;;;5075774;28;20571;-50
2021/12/19 06:32:33;;;;;;;18.83;5.25;;;6.80;99.90;;;;;;5067027;28;20087;-55
2021/12/19 06:35:06;;;;;;;24.42;5.60;;;6.70;99.90;;;;;;5072305;28;20260;-55
2021/12/19 06:37:35;;;;;;;20.95;5.82;;;;;;;;;;5075098;28;20189;-55
2021/12/19 06:40:03;;;;;;;18.30;5.13;;;6.70;99.90;;;;;;5069766;28;20526;-54
2021/12/19 06:42:29;;;;;;;15.80;5.45;;;6.90;99.90;;;;;;5070938;28;20044;-55
2021/12/19 06:44:55;;;;;;;17.08;5.70;;;;;;;;;;5071457;28;20460;-53
2021/12/19 06:47:22;;;;;;;18.58;5.72;;;6.90;99.90;;;;;;5066845;28;20447;-55
2021/12/19 06:49:48;;;;;;;17.73;4.97;;;;;;;;;;5060748;28;20127;-55
2021/12/19 06:52:14;;;;;;;20.10;5.38;;;;;;;;;;5073689;28;20052;-52
2021/12/19 06:54:40;;;;;;;23.25;6.82;;;6.70;99.90;;;;;;5081387;28;20052;-54
2021/12/19 06:57:06;;;;;;;20.33;5.97;;;6.70;99.90;;;;;;5074624;28;20119;-51
2021/12/19 06:59:31;;;;;;;17.55;5.72;;;6.70;99.90;;;;;;5066341;28;20382;-54
2021/12/19 07:01:57;;;;;;;19.67;4.18;;;6.80;99.90;;;;;;5075287;28;20377;-55
2021/12/19 07:04:23;;;;;;;15.70;3.78;;;;;;;;;;5073568;28;21189;-55
2021/12/19 07:06:49;;;;;;;11.75;2.92;;;;;;;;;;5069898;28;20056;-53
2021/12/19 07:09:15;;;;;;;9.82;2.83;;;6.80;99.90;;;;;;5073746;28;20044;-52
2021/12/19 07:11:42;;;;;;;25.35;4.93;;;6.70;99.90;;;;;;5073745;28;20047;-56
2021/12/19 07:14:08;;;;;;;11.75;3.17;;;;;;;;;;5073752;28;20140;-55
2021/12/19 07:16:34;;;;;;;11.18;3.65;;;;;;;;;;5076683;28;20051;-55
2021/12/19 07:19:00;;;;;;;14.38;4.00;;;6.60;99.90;;;;;;5073462;28;20040;-56
2021/12/19 07:21:29;;;;;;;17.88;4.28;;;6.70;99.90;;;;;;5076425;28;20052;-52
2021/12/19 07:23:56;;;;;;;12.27;4.13;;;;;;;;;;5068348;28;20043;-53
2021/12/19 07:26:22;;;;;;;17.95;3.45;;;6.80;99.90;;;;;;5072295;28;20044;-52
2021/12/19 07:28:50;;;;;;;19.70;4.65;;;6.70;99.90;;;;;;5070449;28;20063;-49
2021/12/19 07:31:19;;;;;;;17.50;3.78;;;6.70;99.90;;;;;;5061302;28;20129;-52
2021/12/19 07:33:45;;;;;;;12.13;3.30;;;;;;;;;;5070672;28;20040;-55
2021/12/19 07:36:13;;;;;;;20.90;3.72;;;6.70;99.90;;;;;;5062391;28;20044;-55
2021/12/19 07:38:52;;;;;;;14.50;4.05;;;6.80;99.90;;;;;;5073655;28;20653;-52
2021/12/19 07:41:18;;;;;;;17.48;3.50;;;6.60;99.90;;;;;;5078688;28;20032;-52
2021/12/19 07:43:47;;;;;;;15.80;4.18;;;6.70;99.90;;;;;;5074365;28;20537;-55
2021/12/19 07:46:13;;;;;;;11.65;3.78;;;6.80;99.90;;;;;;5075059;28;20059;-55
2021/12/19 07:48:38;;;;;;;13.43;3.70;;;6.90;99.90;;;;;;5077371;28;20492;-55
2021/12/19 07:51:04;;;;;;;16.25;3.70;;;;;;;;;;5072949;28;20040;-55
2021/12/19 07:53:30;;;;;;;16.75;3.67;;;;;;;;;;5072768;28;20115;-55
2021/12/19 07:55:57;;;;;;;18.90;4.28;;;;;;;;;;5072061;28;20066;-55
2021/12/19 07:58:22;;;;;;;19.35;3.33;;;6.90;99.90;;;;;;5071993;28;20040;-53
2021/12/19 08:00:48;;;;;;;23.95;4.38;;;;;;;;;;5080466;28;20044;-55
2021/12/19 08:03:14;;;;;;;13.18;3.38;;;6.70;99.90;;;;;;5070244;28;20627;-52
2021/12/19 08:05:42;;;;;;;13.90;3.92;;;6.90;99.90;;;;;;5066552;28;20119;-54
2021/12/19 08:08:10;;;;;;;21.13;4.60;;;6.80;99.90;;;;;;5082131;28;20036;-56
2021/12/19 08:13:05;;;;;;;18.88;4.50;;;6.80;99.90;;;;;;5070736;28;20446;-52
2021/12/19 08:15:33;;;;;;;20.88;4.28;;;6.90;99.90;;;;;;5065887;28;20370;-55
2021/12/19 08:18:00;;;;;;;15.68;3.42;;;6.90;99.90;;;;;;5069732;28;20140;-54
2021/12/19 08:20:27;;;;;;;18.55;3.92;;;;;;;;;;5064309;28;20032;-55
2021/12/19 08:22:54;;;;;;;17.17;4.18;;;6.90;99.90;;;;;;5083152;28;20584;-54
2021/12/19 08:25:20;;;;;;;18.33;3.83;;;;;;;;;;5076560;28;20370;-54
2021/12/19 08:27:46;;;;;;;16.10;4.03;;;6.80;99.90;;;;;;5070307;28;20036;-54
2021/12/19 08:30:13;;;;;;;16.33;3.15;;;6.90;99.90;;;;;;5079743;28;20044;-53
2021/12/19 08:32:39;;;;;;;17.30;3.20;;;6.90;99.90;;;;;;5076261;28;20055;-54
2021/12/19 08:35:07;;;;;;;15.38;3.25;;;6.90;99.90;;;;;;5070938;28;20033;-52
2021/12/19 08:37:33;;;;;;;20.70;3.40;;;6.80;99.90;;;;;;5068782;28;20035;-55
2021/12/19 08:40:00;;;;;;;16.33;3.25;;;7.00;99.90;;;;;;5075358;28;20037;-54
2021/12/19 08:42:28;;;;;;;19.98;3.60;;;6.80;99.90;;;;;;5076499;28;20040;-54
2021/12/19 08:44:54;;;;;;;21.58;4.78;;;;;;;;;;5074812;28;20446;-55
2021/12/19 08:47:20;;;;;;;20.85;7.13;;;;;;;;;;5075857;28;20109;-55
2021/12/19 08:49:46;;;;;;;14.85;3.45;;;;;;;;;;5075875;28;20086;-55
2021/12/19 08:52:12;;;;;;;18.52;5.22;;;;;;;;;;5071726;28;20723;-57
2021/12/19 08:54:39;;;;;;;20.02;3.90;;;6.80;99.90;;;;;;5074230;28;20086;-54
2021/12/19 08:57:05;;;;;;;17.95;3.88;;;6.90;99.90;;;;;;5081368;28;20504;-55
2021/12/19 08:59:31;;;;;;;19.50;4.97;;;;;;;;;;5074801;28;20044;-55
2021/12/19 09:02:01;;;;;;;12.68;3.63;;;7.10;99.90;;;;;;5068155;28;20036;-54
2021/12/19 09:04:27;;;;;;;12.88;4.22;;;7.00;99.90;;;;;;5076447;28;20041;-55
2021/12/19 09:06:56;;;;;;;15.68;3.45;;;7.00;99.90;;;;;;5076170;28;20048;-56
2021/12/19 09:09:23;;;;;;;16.42;3.80;;;6.90;99.90;;;;;;5078158;28;20051;-53
2021/12/19 09:11:52;;;;;;;14.73;3.17;;;7.00;99.90;;;;;;5065255;28;20052;-55
2021/12/19 09:14:18;;;;;;;15.48;2.58;;;;;;;;;;5074486;28;20844;-53
2021/12/19 09:16:44;;;;;;;15.35;2.95;;;;;;;;;;5066623;28;20048;-55
2021/12/19 09:19:12;;;;;;;16.73;3.33;;;7.20;99.90;;;;;;5083255;28;20040;-55
2021/12/19 09:21:41;;;;;;;18.17;3.78;;;7.00;99.90;;;;;;5066602;28;20583;-55
2021/12/19 09:24:06;;;;;;;15.45;4.30;;;7.10;99.90;;;;;;5084593;28;20032;-54
2021/12/19 09:26:32;;;;;;;14.40;3.92;;;7.10;99.90;;;;;;5083266;28;20036;-56
2021/12/19 09:29:00;;;;;;;18.88;2.67;;;7.10;99.90;;;;;;5082105;28;20555;-55
2021/12/19 09:31:26;;;;;;;11.57;2.80;;;6.90;99.90;;;;;;5082385;28;20396;-52
2021/12/19 09:33:52;;;;;;;13.13;3.25;;;7.10;99.90;;;;;;5075087;28;20035;-55
2021/12/19 09:36:17;;;;;;;16.02;3.25;;;7.00;99.90;;;;;;5082725;28;20032;-53
2021/12/19 09:38:48;;;;;;;17.00;3.13;;;7.10;99.90;;;;;;5070824;28;20127;-55
2021/12/19 09:41:17;;;;;;;11.43;2.78;;;7.00;99.90;;;;;;5064885;28;20044;-55
2021/12/19 09:43:43;;;;;;;21.63;4.75;;;7.20;99.90;;;;;;5077261;28;20047;-55
2021/12/19 09:46:17;;;;;;;16.38;3.95;;;7.20;99.90;;;;;;5077175;28;20051;-54
2021/12/19 09:48:45;;;;;;;18.23;3.45;;;7.20;99.90;;;;;;5077866;28;20040;-50
2021/12/19 09:51:12;;;;;;;17.27;3.97;;;7.10;99.90;;;;;;5073296;28;20044;-50
2021/12/19 09:53:39;;;;;;;17.70;4.03;;;7.00;99.90;;;;;;5076080;28;20063;-50
2021/12/19 09:56:05;;;;;;;21.95;3.72;;;7.10;99.90;;;;;;5079050;28;20068;-53
2021/12/19 09:58:32;;;;;;;14.63;3.88;;;7.20;99.90;;;;;;5077289;28;20040;-53
2021/12/19 10:01:00;;;;;;;16.63;4.05;;;7.30;99.90;;;;;;5074012;28;20036;-54
2021/12/19 10:03:29;;;;;;;18.85;4.35;;;7.30;99.90;;;;;;5081971;28;20392;-55
2021/12/19 10:06:13;;;;;;;14.60;3.03;;;7.10;99.90;;;;;;5072646;28;20378;-52
2021/12/19 10:08:39;;;;;;;22.95;4.00;;;7.30;99.90;;;;;;5062844;28;20052;-52
2021/12/19 10:11:13;;;;;;;19.95;3.90;;;7.40;99.90;;;;;;5067814;28;20043;-55
2021/12/19 10:13:41;;;;;;;18.55;4.50;;;7.30;99.90;;;;;;5084134;28;20044;-54
2021/12/19 10:16:25;;;;;;;20.02;4.57;;;7.20;99.90;;;;;;5073374;28;20074;-55
2021/12/19 10:18:59;;;;;;;21.88;4.00;;;7.20;99.90;;;;;;5073819;28;20032;-54
2021/12/19 10:21:25;;;;;;;24.77;4.22;;;;;;;;;;5064783;28;20037;-53
2021/12/19 10:23:51;;;;;;;19.73;3.38;;;;;;;;;;5076457;28;20037;-55
2021/12/19 10:26:17;;;;;;;21.15;3.92;;;7.40;99.90;;;;;;5062433;28;20598;-53
2021/12/19 10:28:55;;;;;;;17.25;3.60;;;7.40;99.90;;;;;;5075189;28;20237;-50
2021/12/19 10:31:22;;;;;;;23.88;4.80;;;7.40;99.90;;;;;;5071954;28;20048;-49
2021/12/19 10:33:48;;;;;;;22.10;3.75;;;7.30;99.90;;;;;;5082422;28;20048;-55
2021/12/19 10:36:14;;;;;;;19.88;3.53;;;7.30;99.90;;;;;;5081483;28;20044;-54
2021/12/19 10:38:45;;;;;;;21.98;3.88;;;7.20;99.90;;;;;;5063849;28;20617;-54
2021/12/19 10:41:14;;;;;;;17.63;4.22;;;7.40;99.90;;;;;;5080990;28;20443;-49
2021/12/19 10:46:49;;;;;;;19.00;3.75;;;7.40;99.90;;;;;;5079025;28;20408;-53
2021/12/19 10:49:30;;;;;;;23.58;4.85;;;7.40;99.90;;;;;;5072258;28;20455;-55
2021/12/19 10:52:01;;;;;;;22.20;3.65;;;7.30;99.90;;;;;;5062648;28;20036;-52
2021/12/19 10:54:28;;;;;;;23.65;3.55;;;7.30;99.90;;;;;;5073807;28;20075;-54
2021/12/19 10:57:06;;;;;;;22.52;4.28;;;7.30;99.90;;;;;;5065537;28;20091;-54
2021/12/19 10:59:34;;;;;;;15.52;2.92;;;7.40;99.90;;;;;;5081012;28;20695;-53
2021/12/19 11:02:00;;;;;;;18.40;3.33;;;7.30;99.90;;;;;;5073515;28;20048;-54
2021/12/19 11:04:26;;;;;;;21.05;4.45;;;7.30;99.90;;;;;;5062534;28;20024;-55
2021/12/19 11:06:54;;;;;;;17.98;3.25;;;7.40;99.90;;;;;;5076288;28;20848;-55
2021/12/19 11:09:23;;;;;;;18.67;4.35;;;7.40;99.90;;;;;;5077182;28;20087;-55
2021/12/19 11:11:56;;;;;;;16.77;3.42;;;7.30;99.90;;;;;;5081199;28;20046;-56
2021/12/19 11:14:31;;;;;;;20.80;3.10;;;7.40;99.90;;;;;;5067763;28;20036;-54
2021/12/19 11:17:21;;;;;;;14.45;2.55;;;7.40;99.90;;;;;;5078092;28;20563;-55
2021/12/19 11:19:51;;;;;;;14.50;3.13;;;7.50;99.90;;;;;;5067930;28;20094;-56
2021/12/19 11:22:28;;;;;;;19.55;2.95;;;7.40;99.90;;;;;;5072747;28;20500;-55
2021/12/19 11:24:58;;;;;;;20.27;2.85;;;7.40;99.90;;;;;;5072477;28;20032;-55
2021/12/19 11:27:27;;;;;;;13.82;2.30;;;7.60;99.90;;;;;;5071815;28;20052;-55
2021/12/19 11:29:55;;;;;;;14.93;3.20;;;7.40;99.90;;;;;;5078307;28;21385;-53
2021/12/19 11:32:27;;;;;;;16.95;2.50;;;7.50;99.90;;;;;;5067617;28;20041;-54
2021/12/19 11:35:18;;;;;;;22.50;3.03;;;7.60;99.90;;;;;;5061641;28;20119;-54
2021/12/19 11:37:49;;;;;;;16.73;2.80;;;7.60;99.90;;;;;;4983566;28;20157;-54
2021/12/19 11:40:18;;;;;;;22.02;3.88;;;7.50;99.90;;;;;;4998698;28;20133;-53
2021/12/19 11:42:44;;;;;;;20.83;3.47;;;7.50;99.90;;;;;;4984799;28;20085;-52
2021/12/19 11:45:28;;;;;;;21.25;3.40;;;7.60;99.90;;;;;;4999961;28;21159;-55
2021/12/19 11:48:10;;;;;;;14.50;2.72;;;7.60;99.90;;;;;;4999461;28;20053;-55
2021/12/19 11:50:46;;;;;;;;;;;7.70;99.90;;;;;;4999756;28;20073;-55
2021/12/19 11:53:11;;;;;;;15.88;2.80;;;7.60;99.90;;;;;;5000003;28;19921;-56
2021/12/19 11:55:48;;;;;;;25.90;4.57;;;7.50;99.90;;;;;;4983200;28;20116;-55
2021/12/19 11:58:23;;;;;;;24.80;3.22;;;7.60;99.90;;;;;;4999284;28;20038;-56
2021/12/19 12:01:16;;;;;;;15.70;2.97;;;7.70;99.90;;;;;;5000038;28;20550;-54
2021/12/19 12:04:00;;;;;;;25.10;4.05;;;7.70;99.90;;;;;;4922238;29;20039;-54
2021/12/19 12:06:31;;;;;;;18.63;3.08;;;7.60;99.90;;;;;;4922894;29;20044;-53
2021/12/19 12:09:14;;;;;;;19.85;3.45;;;7.70;99.90;;;;;;4922526;29;20083;-55
2021/12/19 12:12:00;;;;;;;18.85;3.78;;;7.50;99.90;;;;;;4922494;29;20040;-54
2021/12/19 12:14:30;;;;;;;21.75;3.13;;;7.70;99.90;;;;;;4948122;28;20053;-55
2021/12/19 12:17:03;;;;;;;13.32;2.50;;;7.60;99.90;;;;;;4999016;28;20041;-55
2021/12/19 12:19:44;;;;;;;22.55;3.08;;;7.70;99.90;;;;;;5002874;28;20128;-55
2021/12/19 12:22:44;;;;;;;20.20;3.10;;;7.60;99.90;;;;;;5012506;28;20046;-56
2021/12/19 12:25:24;;;;;;;20.88;3.88;;;7.70;99.90;;;;;;5012034;28;20050;-54
2021/12/19 12:27:55;;;;;;;21.13;2.95;;;7.60;99.90;;;;;;5006035;28;20053;-56
2021/12/19 12:30:35;;;;;;;21.98;3.50;;;7.70;99.90;;;;;;5004526;28;20575;-54
2021/12/19 12:33:03;;;;;;;20.42;4.15;;;7.70;99.90;;;;;;5008705;28;20053;-53
2021/12/19 12:35:35;;;;;;;20.17;3.30;;;7.80;99.90;;;;;;5016339;28;20546;-52
2021/12/19 12:38:02;;;;;;;24.63;3.97;;;7.70;99.90;;;;;;5007924;28;20080;-55
2021/12/19 12:40:33;;;;;;;26.00;5.07;;;7.60;99.90;;;;;;5026135;28;20457;-55
2021/12/19 12:43:00;;;;;;;21.73;3.90;;;7.70;99.90;;;;;;5073165;28;20051;-56
2021/12/19 12:45:28;;;;;;;15.93;3.22;;;7.80;99.90;;;;;;5079785;28;20524;-54
2021/12/19 12:47:54;;;;;;;20.42;4.00;;;7.80;99.90;;;;;;5064038;28;20062;-55
2021/12/19 12:50:20;;;;;;;19.33;3.47;;;7.70;99.90;;;;;;5079054;28;20067;-52
2021/12/19 12:52:46;;;;;;;31.48;3.92;;;7.70;99.90;;;;;;5063161;28;20068;-53
2021/12/19 12:55:14;;;;;;;21.52;3.67;;;7.70;99.90;;;;;;5075410;28;20048;-54
2021/12/19 12:57:41;;;;;;;20.42;3.58;;;7.80;99.90;;;;;;5071092;28;20051;-54
2021/12/19 13:00:18;;;;;;;25.58;4.03;;;7.80;99.90;;;;;;5075435;28;20121;-56
2021/12/19 13:02:45;;;;;;;24.98;3.80;;;7.90;99.90;;;;;;5061828;28;20044;-54
2021/12/19 13:05:13;;;;;;;21.27;4.10;;;7.70;99.90;;;;;;5059590;28;20523;-55
2021/12/19 13:07:39;;;;;;;18.20;3.33;;;;;;;;;;5076838;28;20039;-55
2021/12/19 13:10:05;;;;;;;28.23;4.63;;;7.80;99.90;;;;;;5070129;28;20045;-55
2021/12/19 13:12:37;;;;;;;18.23;3.35;;;7.80;99.90;;;;;;5071343;28;20032;-56
2021/12/19 13:15:06;;;;;;;20.03;4.57;;;7.80;99.90;;;;;;5067756;28;20040;-53
2021/12/19 13:17:44;;;;;;;22.73;3.90;;;7.80;99.90;;;;;;5070476;28;20689;-55
2021/12/19 13:20:16;;;;;;;27.60;3.55;;;7.80;99.90;;;;;;5082865;28;20054;-56
2021/12/19 13:22:49;;;;;;;22.20;3.45;;;7.70;99.90;;;;;;5075483;28;20040;-55
2021/12/19 13:25:22;;;;;;;19.58;2.95;;;7.70;99.90;;;;;;5064180;28;20047;-55
2021/12/19 13:27:50;;;;;;;28.50;4.03;;;7.80;99.90;;;;;;5066609;28;20057;-53
2021/12/19 13:30:20;;;;;;;25.27;3.35;;;7.80;99.90;;;;;;5063485;28;20456;-55
2021/12/19 13:32:52;;;;;;;21.00;3.08;;;7.70;99.90;;;;;;5070093;28;20036;-55
2021/12/19 13:35:25;;;;;;;20.58;2.95;;;7.70;99.90;;;;;;5080147;28;20397;-56
2021/12/19 13:38:14;;;;;;;16.77;3.20;;;7.80;99.90;;;;;;5069741;28;20405;-54
2021/12/19 13:40:48;;;;;;;19.83;3.25;;;7.70;99.90;;;;;;4999896;28;20084;-53
2021/12/19 13:43:30;;;;;;;28.48;3.40;;;7.70;99.90;;;;;;5018130;28;20045;-56
2021/12/19 13:45:57;;;;;;;21.90;2.90;;;7.60;99.90;;;;;;5018692;28;20084;-56
2021/12/19 13:48:28;;;;;;;16.77;3.22;;;7.70;99.90;;;;;;5011330;28;20088;-54
2021/12/19 13:51:16;;;;;;;17.00;2.95;;;7.80;99.90;;;;;;5006397;28;20443;-54
2021/12/19 13:53:49;;;;;;;19.83;3.65;;;7.80;99.90;;;;;;5004851;28;20033;-55
2021/12/19 13:56:27;;;;;;;21.30;2.90;;;7.70;99.90;;;;;;5019150;28;20522;-53
2021/12/19 13:58:56;;;;;;;21.85;4.65;;;7.90;99.90;;;;;;4989263;28;20053;-55
2021/12/19 14:01:34;;;;;;;15.77;2.78;;;7.90;99.90;;;;;;5004861;28;20048;-56
2021/12/19 14:04:15;;;;;;;17.05;2.47;;;7.80;99.90;;;;;;5016080;28;20061;-55
2021/12/19 14:06:42;;;;;;;17.05;2.85;;;7.80;99.90;;;;;;5005840;28;20029;-56
2021/12/19 14:09:12;;;;;;;20.58;2.78;;;7.90;99.90;;;;;;5014019;28;20048;-56
2021/12/19 14:11:43;;;;;;;13.55;3.33;;;;;;;;;;5006833;28;20045;-56
2021/12/19 14:14:26;;;;;;;15.30;3.40;;;7.80;99.90;;;;;;5015455;28;20053;-56
2021/12/19 14:17:02;;;;;;;16.23;2.75;;;7.80;99.90;;;;;;5018230;28;20195;-55
2021/12/19 14:19:33;;;;;;;8.60;1.77;;;7.70;99.90;;;;;;5073562;28;20680;-55
2021/12/19 14:22:01;;;;;;;7.57;2.20;;;7.70;99.90;;;;;;5071606;28;20051;-56
2021/12/19 14:24:44;;;;;;;5.93;1.02;;;7.50;99.90;;;;;;5077440;28;20041;-56
2021/12/19 14:27:15;;;;;;;8.38;2.40;;;7.60;99.90;;;;;;5064127;28;20131;-56
2021/12/19 14:29:44;;;;;;;5.90;1.20;;;7.70;99.90;;;;;;5080384;28;20036;-55